Time;durP1;ratioP1;P1;durP2;ratioP2;P2;SDS_P1;SDS_P2;PMS_P1;PMS_P2;Temp;Humidity;BMP_temperature;BMP_pressure;BME280_temperature;BME280_humidity;BME280_pressure;Samples;Min_cycle;Max_cycle;Signal;HPM_P1;HPM_P2
2022/09/15 00:00:52;;;;;;;40.48;23.83;;;;;;;9.93;100.00;99051.80;1750670;82;21033;-66
2022/09/15 00:03:20;;;;;;;35.58;21.52;;;;;;;9.95;100.00;99053.89;1750919;81;21052;-67
2022/09/15 00:05:46;;;;;;;34.65;22.67;;;;;;;9.97;100.00;99054.19;1750993;82;21521;-66
2022/09/15 00:08:14;;;;;;;36.50;23.98;;;;;;;9.99;100.00;99052.81;1750669;82;21247;-67
2022/09/15 00:10:54;;;;;;;36.90;19.57;;;;;;;9.99;100.00;99052.81;1750669;82;21049;-66
2022/09/15 00:13:21;;;;;;;31.00;21.97;;;;;;;9.99;100.00;99050.18;1751091;79;21040;-66
2022/09/15 00:15:48;;;;;;;27.05;19.62;;;;;;;9.99;100.00;99051.50;1750674;82;21100;-67
2022/09/15 00:18:14;;;;;;;36.30;23.02;;;;;;;9.98;100.00;99055.03;1750631;82;21103;-65
2022/09/15 00:20:43;;;;;;;28.98;17.95;;;;;;;9.99;100.00;99046.23;1750524;82;21141;-67
2022/09/15 00:23:11;;;;;;;23.22;17.75;;;;;;;9.98;100.00;99053.72;1750397;82;21060;-67
2022/09/15 00:25:49;;;;;;;30.57;20.12;;;;;;;9.98;100.00;99044.52;1750665;82;21544;-66
2022/09/15 00:28:18;;;;;;;23.95;17.35;;;;;;;9.99;100.00;99042.29;1750268;82;21061;-68
2022/09/15 00:30:49;;;;;;;28.45;20.12;;;;;;;9.96;100.00;99041.11;1750674;82;21116;-67
2022/09/15 00:33:15;;;;;;;30.40;22.77;;;;;;;9.94;100.00;99037.27;1750791;82;21186;-67
2022/09/15 00:35:44;;;;;;;28.10;22.25;;;;;;;9.91;100.00;99035.25;1750481;82;21042;-67
2022/09/15 00:38:11;;;;;;;31.75;22.10;;;;;;;9.90;100.00;99037.03;1750523;82;21088;-67
2022/09/15 00:40:52;;;;;;;30.45;23.35;;;;;;;9.88;100.00;99039.73;1750707;82;21037;-66
2022/09/15 00:43:49;;;;;;;36.40;25.77;;;;;;;9.88;100.00;99039.73;1751109;82;21631;-66
2022/09/15 00:46:23;;;;;;;25.00;17.77;;;;;;;9.90;100.00;99043.61;1750590;82;21091;-66
2022/09/15 00:49:12;;;;;;;24.05;18.85;;;;;;;9.93;100.00;99043.91;1749761;82;21064;-66
2022/09/15 00:51:53;;;;;;;33.28;24.18;;;;;;;9.91;100.00;99042.66;1749824;82;21602;-67
2022/09/15 00:54:31;;;;;;;31.07;24.60;;;;;;;9.94;100.00;99042.97;1746958;82;21063;-66
2022/09/15 00:57:01;;;;;;;38.30;25.17;;;;;;;9.91;100.00;99040.03;1733413;82;21078;-66
2022/09/15 00:59:29;;;;;;;32.63;24.32;;;;;;;9.90;100.00;99038.82;1733156;82;21246;-67
2022/09/15 01:02:04;;;;;;;34.33;24.18;;;;;;;9.82;100.00;99028.67;1733233;82;21023;-66
2022/09/15 01:04:31;;;;;;;34.35;23.65;;;;;;;9.79;100.00;99029.69;1733179;82;21039;-66
2022/09/15 01:07:02;;;;;;;28.17;21.85;;;;;;;9.77;100.00;99030.23;1733038;82;21087;-67
2022/09/15 01:09:34;;;;;;;22.60;17.95;;;;;;;9.75;100.00;99038.66;1733101;82;21063;-66
2022/09/15 01:12:02;;;;;;;20.48;15.88;;;;;;;9.73;100.00;99034.41;1731713;82;21148;-66
2022/09/15 01:14:29;;;;;;;29.25;20.10;;;;;;;9.70;100.00;99043.30;1733307;82;21087;-66
2022/09/15 01:17:19;;;;;;;31.90;22.40;;;;;;;9.68;100.00;99043.84;1733038;82;21012;-66
2022/09/15 01:20:09;;;;;;;28.33;21.50;;;;;;;9.63;100.00;99036.66;1708319;82;21086;-66
2022/09/15 01:23:13;;;;;;;31.03;23.03;;;;;;;9.60;100.00;99034.20;1733258;82;22116;-67
2022/09/15 01:25:55;;;;;;;29.85;20.40;;;;;;;9.57;100.00;99026.45;1732831;82;21163;-66
2022/09/15 01:31:27;;;;;;;26.75;20.85;;;;;;;9.37;100.00;99015.17;1796508;79;29365;-66
2022/09/15 01:34:09;;;;;;;28.40;19.62;;;;;;;9.30;100.00;99012.93;1746957;81;21053;-65
2022/09/15 01:36:53;;;;;;;27.52;20.57;;;;;;;9.33;100.00;99011.45;1756473;81;21507;-66
2022/09/15 01:39:24;;;;;;;33.38;24.25;;;;;;;9.30;100.00;99000.64;1756582;81;21036;-66
2022/09/15 01:41:59;;;;;;;35.10;25.60;;;;;;;9.31;100.00;99001.48;1756549;81;21045;-65
2022/09/15 01:44:40;;;;;;;29.87;21.02;;;;;;;9.31;100.00;99002.33;1756676;81;21161;-67
2022/09/15 01:47:09;;;;;;;38.98;24.80;;;;;;;9.30;100.00;99001.95;1756499;81;21643;-66
2022/09/15 01:49:47;;;;;;;37.23;23.05;;;;;;;9.32;100.00;99001.41;1756249;81;21188;-67
2022/09/15 01:52:17;;;;;;;32.25;23.45;;;;;;;9.32;100.00;99001.41;1755993;81;20981;-66
2022/09/15 01:54:47;;;;;;;29.37;20.75;;;;;;;9.33;100.00;98995.22;1756471;81;21053;-65
2022/09/15 01:57:20;;;;;;;35.88;25.48;;;;;;;9.30;100.00;98999.33;1756269;81;21049;-66
2022/09/15 01:59:49;;;;;;;40.78;27.40;;;;;;;9.32;100.00;98992.22;1756531;81;21005;-66
2022/09/15 02:02:24;;;;;;;34.08;23.77;;;;;;;9.32;100.00;98985.66;1728133;81;21188;-66
2022/09/15 02:04:55;;;;;;;37.08;24.27;;;;;;;9.31;100.00;98985.72;1726270;82;21041;-67
2022/09/15 02:07:30;;;;;;;34.63;23.50;;;;;;;9.33;100.00;98983.87;1726347;83;21073;-66
2022/09/15 02:10:15;;;;;;;36.58;25.77;;;;;;;9.33;100.00;98979.45;1726480;83;21009;-66
2022/09/15 02:12:56;;;;;;;26.95;18.82;;;;;;;9.34;100.00;98981.17;1708847;83;21033;-66
2022/09/15 02:15:32;;;;;;;22.05;17.02;;;;;;;9.36;100.00;98981.08;1695673;84;21523;-65
2022/09/15 02:18:00;;;;;;;36.30;22.70;;;;;;;9.35;100.00;98977.61;1695592;84;21057;-66
2022/09/15 02:20:48;;;;;;;35.70;22.25;;;;;;;9.38;100.00;98985.32;1695943;84;21062;-66
2022/09/15 02:23:24;;;;;;;36.05;23.83;;;;;;;9.41;100.00;98981.72;1695406;84;21093;-66
2022/09/15 02:25:54;;;;;;;32.38;24.75;;;;;;;9.42;100.00;98988.19;1695687;84;21112;-66
2022/09/15 02:28:26;;;;;;;35.03;23.83;;;;;;;9.44;100.00;98988.97;1695567;84;21237;-66
2022/09/15 02:30:53;;;;;;;34.63;23.98;;;;;;;9.47;100.00;98981.86;1673860;84;21174;-66
2022/09/15 02:33:20;;;;;;;38.67;25.62;;;;;;;9.45;100.00;98984.11;1692849;83;21222;-67
2022/09/15 02:35:46;;;;;;;34.27;24.10;;;;;;;9.48;100.00;98980.91;1692810;84;21064;-67
2022/09/15 02:38:13;;;;;;;27.45;17.92;;;;;;;9.48;100.00;98982.23;1692753;84;21070;-66
2022/09/15 02:40:42;;;;;;;39.38;23.20;;;;;;;9.46;100.00;98977.08;1675067;84;21208;-66
2022/09/15 02:43:12;;;;;;;39.73;25.85;;;;;;;9.49;100.00;98973.44;1692747;84;21550;-67
2022/09/15 02:45:39;;;;;;;23.83;16.42;;;;;;;9.52;100.00;98973.27;1692612;84;21053;-66
2022/09/15 02:48:08;;;;;;;29.75;22.30;;;;;;;9.55;100.00;98967.88;1692497;84;21491;-66
2022/09/15 02:50:36;;;;;;;27.52;17.20;;;;;;;9.58;100.00;98967.70;1692475;84;21093;-67
2022/09/15 02:53:03;;;;;;;29.32;21.50;;;;;;;9.59;100.00;98972.02;1692353;84;21762;-67
2022/09/15 02:55:30;;;;;;;33.48;23.07;;;;;;;9.60;100.00;98971.11;1692293;84;21327;-67
2022/09/15 02:57:56;;;;;;;37.95;25.72;;;;;;;9.64;100.00;98971.34;1692461;84;21136;-68
2022/09/15 03:00:23;;;;;;;40.70;24.72;;;;;;;9.69;100.00;98970.63;1692537;83;21070;-66
2022/09/15 03:02:52;;;;;;;33.33;25.57;;;;;;;9.72;100.00;98972.25;1692285;84;21076;-66
2022/09/15 03:05:22;;;;;;;36.13;25.35;;;;;;;9.75;100.00;98974.23;1692619;83;21757;-68
2022/09/15 03:07:49;;;;;;;33.88;25.88;;;;;;;9.80;100.00;98974.00;1692268;84;21609;-67
2022/09/15 03:10:16;;;;;;;36.80;25.23;;;;;;;9.83;100.00;98964.19;1674695;84;21089;-67
2022/09/15 03:12:49;;;;;;;43.13;27.13;;;;;;;9.86;100.00;98961.38;1692496;84;21057;-68
2022/09/15 03:15:18;;;;;;;38.30;25.57;;;;;;;9.91;100.00;98950.63;1692853;84;21610;-66
2022/09/15 03:17:46;;;;;;;33.50;24.52;;;;;;;9.92;100.00;98955.44;1692558;84;21523;-66
2022/09/15 03:20:20;;;;;;;33.10;23.50;;;;;;;9.92;100.00;98956.28;1692487;84;21525;-67
2022/09/15 03:22:47;;;;;;;37.20;24.87;;;;;;;9.94;100.00;98957.50;1692280;84;22214;-67
2022/09/15 03:25:14;;;;;;;31.82;23.27;;;;;;;9.96;100.00;98956.95;1692716;84;21081;-67
2022/09/15 03:27:41;;;;;;;32.53;24.35;;;;;;;9.98;100.00;98948.05;1692336;84;21065;-66
2022/09/15 03:30:08;;;;;;;22.75;18.17;;;;;;;9.99;100.00;98939.24;1693424;84;21144;-66
2022/09/15 03:32:36;;;;;;;35.03;23.98;;;;;;;10.02;100.00;98943.48;1695152;84;21681;-67
2022/09/15 03:35:04;;;;;;;28.00;20.97;;;;;;;10.04;100.00;98935.05;1695175;84;21100;-68
2022/09/15 03:37:31;;;;;;;29.92;22.40;;;;;;;10.08;100.00;98931.33;1695747;84;21053;-67
2022/09/15 03:39:57;;;;;;;36.93;26.45;;;;;;;10.11;100.00;98931.15;1695600;84;21574;-67
2022/09/15 03:42:24;;;;;;;35.90;24.75;;;;;;;10.15;100.00;98912.95;1695261;84;21522;-67
2022/09/15 03:44:50;;;;;;;34.95;26.07;;;;;;;10.22;100.00;98916.95;1694853;84;21101;-67
2022/09/15 03:47:17;;;;;;;29.63;24.32;;;;;;;10.29;100.00;98914.86;1695054;84;21076;-65
2022/09/15 03:49:43;;;;;;;31.27;23.73;;;;;;;10.34;100.00;98911.98;1695229;84;21074;-66
2022/09/15 03:52:11;;;;;;;34.15;23.60;;;;;;;10.41;100.00;98911.54;1695159;84;21077;-66
2022/09/15 03:54:38;;;;;;;29.60;21.68;;;;;;;10.45;100.00;98904.34;1704910;83;21878;-67
2022/09/15 03:57:05;;;;;;;30.88;24.67;;;;;;;10.48;100.00;98914.69;1724209;82;21122;-67
2022/09/15 03:59:32;;;;;;;31.70;25.55;;;;;;;10.59;100.00;98914.09;1724311;82;21115;-66
2022/09/15 04:01:59;;;;;;;30.50;22.48;;;;;;;10.73;100.00;98915.94;1724492;83;21103;-67
2022/09/15 04:04:27;;;;;;;30.68;25.27;;;;;;;10.85;100.00;98909.96;1724448;83;21063;-68
2022/09/15 04:06:53;;;;;;;28.83;23.83;;;;;;;10.95;100.00;98912.46;1724243;82;21154;-67
2022/09/15 04:09:20;;;;;;;28.67;23.80;;;;;;;11.00;100.00;98906.45;1724271;82;21142;-66
2022/09/15 04:11:47;;;;;;;28.00;21.80;;;;;;;11.04;100.00;98913.24;1724460;83;21091;-66
2022/09/15 04:14:13;;;;;;;23.18;19.37;;;;;;;11.07;100.00;98918.32;1724305;83;21031;-66
2022/09/15 04:16:41;;;;;;;21.93;17.92;;;;;;;11.11;100.00;98921.16;1724157;82;21074;-67
2022/09/15 04:19:07;;;;;;;32.95;24.80;;;;;;;11.15;100.00;98920.97;1724221;83;21328;-66
2022/09/15 04:21:34;;;;;;;27.73;22.42;;;;;;;11.20;100.00;98914.95;1724189;83;21083;-68
2022/09/15 04:24:03;;;;;;;32.63;23.90;;;;;;;11.25;100.00;98912.89;1724223;83;21611;-66
2022/09/15 04:26:33;;;;;;;32.40;25.63;;;;;;;11.30;100.00;98908.22;1724501;82;21539;-66
2022/09/15 04:29:00;;;;;;;33.05;25.35;;;;;;;11.34;100.00;98902.67;1724501;83;21078;-66
2022/09/15 04:31:27;;;;;;;26.80;21.52;;;;;;;11.37;100.00;98908.23;1720279;82;21138;-67
2022/09/15 04:33:54;;;;;;;30.37;25.70;;;;;;;11.41;100.00;98918.98;1719408;83;21032;-66
2022/09/15 04:36:23;;;;;;;30.68;25.43;;;;;;;11.47;100.00;98920.39;1719219;83;21032;-67
2022/09/15 04:38:50;;;;;;;32.53;25.17;;;;;;;11.57;100.00;98931.22;1719322;83;21095;-67
2022/09/15 04:41:17;;;;;;;26.90;22.87;;;;;;;11.60;100.00;98923.98;1719492;83;21075;-67
2022/09/15 04:43:43;;;;;;;28.62;22.80;;;;;;;11.66;100.00;98922.75;1719363;83;21571;-68
2022/09/15 04:46:11;;;;;;;33.25;24.40;;;;;;;11.66;100.00;98925.39;1719379;83;21501;-68
2022/09/15 04:48:38;;;;;;;27.87;21.37;;;;;;;11.70;100.00;98919.83;1719182;83;21024;-66
2022/09/15 04:51:07;;;;;;;25.17;19.32;;;;;;;11.76;100.00;98934.45;1719125;83;21032;-66
2022/09/15 04:53:34;;;;;;;31.52;23.05;;;;;;;11.81;100.00;98923.15;1719130;83;21129;-68
2022/09/15 04:56:06;;;;;;;31.77;24.45;;;;;;;11.88;100.00;98907.83;1719038;83;21268;-66
2022/09/15 04:58:41;;;;;;;34.43;25.90;;;;;;;11.87;100.00;98897.75;1718986;83;21081;-68
2022/09/15 05:01:14;;;;;;;26.35;20.02;;;;;;;11.94;100.00;98877.95;1719056;83;21578;-66
2022/09/15 05:03:41;;;;;;;30.02;23.40;;;;;;;11.96;100.00;98870.80;1719003;83;21057;-67
2022/09/15 05:06:12;;;;;;;36.15;26.75;;;;;;;12.02;100.00;98885.86;1719069;83;21066;-67
2022/09/15 05:08:38;;;;;;;36.40;26.97;;;;;;;12.08;100.00;98878.89;1719501;83;21337;-68
2022/09/15 05:11:08;;;;;;;32.75;23.60;;;;;;;12.14;100.00;98873.20;1719111;83;21107;-68
2022/09/15 05:13:35;;;;;;;29.50;23.05;;;;;;;12.19;100.00;98885.63;1719484;83;21093;-67
2022/09/15 05:16:14;;;;;;;28.42;22.77;;;;;;;12.25;100.00;98891.00;1719215;83;21075;-68
2022/09/15 05:18:41;;;;;;;33.02;25.10;;;;;;;12.25;100.00;98889.20;1718947;83;21449;-67
2022/09/15 05:21:10;;;;;;;36.42;25.43;;;;;;;12.29;100.00;98882.79;1718953;83;21978;-67
2022/09/15 05:23:37;;;;;;;26.45;21.90;;;;;;;12.32;100.00;98882.59;1719019;83;21050;-67
2022/09/15 05:26:07;;;;;;;23.65;18.67;;;;;;;12.34;100.00;98882.02;1718994;83;21069;-68
2022/09/15 05:28:35;;;;;;;24.93;19.67;;;;;;;12.44;100.00;98876.14;1719198;83;21605;-66
2022/09/15 05:31:03;;;;;;;24.87;20.23;;;;;;;12.50;100.00;98873.11;1715784;83;21796;-67
2022/09/15 05:33:30;;;;;;;20.82;17.23;;;;;;;12.56;100.00;98871.38;1684856;83;21598;-67
2022/09/15 05:35:58;;;;;;;45.08;31.37;;;;;;;12.66;100.00;98877.77;1711256;83;21566;-66
2022/09/15 05:38:25;;;;;;;27.95;20.75;;;;;;;12.76;100.00;98868.28;1711092;82;21113;-67
2022/09/15 05:40:52;;;;;;;23.83;18.87;;;;;;;12.83;100.00;98866.08;1711572;83;21019;-67
2022/09/15 05:43:19;;;;;;;32.85;25.23;;;;;;;12.86;100.00;98859.73;1711521;82;21665;-68
2022/09/15 05:45:53;;;;;;;32.98;24.85;;;;;;;12.92;100.00;98858.02;1711568;83;21883;-67
2022/09/15 05:48:20;;;;;;;31.82;24.07;;;;;;;12.99;100.00;98863.27;1711445;83;21109;-68
2022/09/15 05:50:50;;;;;;;28.02;22.67;;;;;;;13.04;100.00;98870.88;1711609;82;21677;-68
2022/09/15 05:53:17;;;;;;;29.63;22.20;;;;;;;13.04;100.00;98875.69;1711700;83;21634;-67
2022/09/15 05:55:43;;;;;;;29.40;21.62;;;;;;;13.05;100.00;98867.30;1711738;83;21064;-67
2022/09/15 05:58:10;;;;;;;27.75;19.60;;;;;;;13.05;100.00;98868.14;1711582;83;21799;-66
2022/09/15 06:00:39;;;;;;;25.80;20.45;;;;;;;13.06;100.00;98868.50;1711511;83;21044;-66
2022/09/15 06:03:06;;;;;;;27.15;22.98;;;;;;;13.09;100.00;98872.28;1711673;83;21087;-67
2022/09/15 06:05:34;;;;;;;31.55;22.70;;;;;;;13.07;100.00;98882.11;1711440;82;21151;-66
2022/09/15 06:08:01;;;;;;;28.15;21.70;;;;;;;13.06;100.00;98867.66;1711637;83;21067;-67
2022/09/15 06:10:29;;;;;;;34.18;23.67;;;;;;;13.04;100.00;98873.52;1711460;82;21163;-68
2022/09/15 06:12:56;;;;;;;30.50;23.15;;;;;;;13.06;100.00;98879.08;1711343;82;21558;-67
2022/09/15 06:15:24;;;;;;;26.73;19.80;;;;;;;13.10;100.00;98884.53;1711434;82;21028;-67
2022/09/15 06:17:52;;;;;;;26.48;20.97;;;;;;;13.12;100.00;98887.92;1711494;83;21074;-68
2022/09/15 06:20:20;;;;;;;22.93;18.07;;;;;;;13.16;100.00;98885.94;1725420;82;21063;-67
2022/09/15 06:22:52;;;;;;;21.87;17.92;;;;;;;13.21;100.00;98891.27;1711559;83;21265;-67
2022/09/15 06:25:19;;;;;;;24.00;20.05;;;;;;;13.27;100.00;98890.47;1711670;83;21060;-67
2022/09/15 06:27:49;;;;;;;33.33;24.98;;;;;;;13.30;100.00;98890.32;1711382;83;21032;-67
2022/09/15 06:30:16;;;;;;;27.22;23.15;;;;;;;13.34;100.00;98890.45;1711732;83;21138;-67
2022/09/15 06:32:44;;;;;;;30.23;23.57;;;;;;;13.35;100.00;98893.48;1711411;82;21059;-69
2022/09/15 06:35:10;;;;;;;29.85;23.70;;;;;;;13.40;100.00;98899.30;1711856;83;21250;-69
2022/09/15 06:37:37;;;;;;;28.27;23.62;;;;;;;13.41;100.00;98895.70;1711215;83;21048;-68
2022/09/15 06:40:06;;;;;;;33.50;24.90;;;;;;;13.47;100.00;98887.35;1712052;83;21056;-68
2022/09/15 06:42:33;;;;;;;25.17;21.80;;;;;;;13.49;100.00;98869.58;1711416;83;21060;-69
2022/09/15 06:45:00;;;;;;;31.02;23.95;;;;;;;13.53;100.00;98865.78;1711608;83;21147;-67
2022/09/15 06:47:32;;;;;;;31.00;22.13;;;;;;;13.54;100.00;98862.17;1711592;83;21229;-68
2022/09/15 06:49:54;;;;;;;30.20;23.62;;;;;;;13.54;100.00;98856.88;1711433;83;21591;-68
2022/09/15 06:52:21;;;;;;;25.30;20.95;;;;;;;13.55;100.00;98854.62;1711265;82;21595;-68
2022/09/15 06:54:48;;;;;;;24.20;19.02;;;;;;;13.58;100.00;98850.43;1711447;83;21575;-67
2022/09/15 06:57:15;;;;;;;29.40;22.50;;;;;;;13.62;100.00;98838.69;1711293;83;21117;-67
2022/09/15 06:59:43;;;;;;;25.72;21.15;;;;;;;13.62;100.00;98853.23;1711354;83;21153;-68
2022/09/15 07:02:09;;;;;;;23.50;18.80;;;;;;;13.68;100.00;98845.81;1711303;83;21028;-69
2022/09/15 07:04:38;;;;;;;26.20;21.35;;;;;;;13.71;100.00;98846.91;1711502;83;21015;-66
2022/09/15 07:07:05;;;;;;;36.65;24.72;;;;;;;13.73;100.00;98852.47;1711379;82;21058;-68
2022/09/15 07:09:31;;;;;;;19.42;16.02;;;;;;;13.79;100.00;98856.50;1711477;83;21100;-67
2022/09/15 07:11:59;;;;;;;27.25;18.55;;;;;;;13.84;100.00;98861.81;1711423;82;21660;-69
2022/09/15 07:14:25;;;;;;;29.23;22.73;;;;;;;13.91;100.00;98862.23;1711542;82;21022;-68
2022/09/15 07:16:52;;;;;;;28.95;21.90;;;;;;;14.00;100.00;98865.55;1711919;83;21107;-69
2022/09/15 07:19:19;;;;;;;33.60;20.27;;;;;;;14.09;100.00;98868.51;1711366;83;21110;-67
2022/09/15 07:21:46;;;;;;;24.70;21.48;;;;;;;14.15;100.00;98861.42;1711429;83;21098;-68
2022/09/15 07:24:14;;;;;;;21.37;18.15;;;;;;;14.23;100.00;98862.58;1711497;82;21495;-68
2022/09/15 07:26:40;;;;;;;25.10;20.97;;;;;;;14.36;100.00;98860.38;1711343;83;21023;-67
2022/09/15 07:29:08;;;;;;;26.97;20.27;;;;;;;14.45;100.00;98873.80;1711368;83;21050;-67
2022/09/15 07:31:36;;;;;;;27.17;21.37;;;;;;;14.53;100.00;98865.76;1716040;83;21088;-67
2022/09/15 07:34:04;;;;;;;28.83;22.05;;;;;;;14.60;100.00;98859.08;1724212;83;21076;-68
2022/09/15 07:36:31;;;;;;;33.78;23.52;;;;;;;14.71;100.00;98863.11;1724149;83;21877;-68
2022/09/15 07:38:57;;;;;;;29.10;21.05;;;;;;;14.78;100.00;98870.97;1724210;82;21062;-67
2022/09/15 07:41:29;;;;;;;24.70;18.87;;;;;;;14.86;100.00;98863.30;1724174;83;21030;-66
2022/09/15 07:43:58;;;;;;;23.80;17.60;;;;;;;14.97;100.00;98860.31;1724485;83;21109;-68
2022/09/15 07:46:25;;;;;;;20.35;16.80;;;;;;;15.08;100.00;98861.67;1724415;82;20998;-68
2022/09/15 07:48:55;;;;;;;22.62;18.07;;;;;;;15.13;100.00;98858.19;1724385;83;21148;-68
2022/09/15 07:51:22;;;;;;;21.57;15.93;;;;;;;15.15;100.00;98848.31;1724153;83;21502;-68
2022/09/15 07:53:49;;;;;;;15.32;13.45;;;;;;;15.13;100.00;98843.59;1724254;83;21093;-67
2022/09/15 07:56:17;;;;;;;21.48;16.52;;;;;;;15.12;100.00;98844.58;1724229;83;21052;-67
2022/09/15 07:58:46;;;;;;;29.67;17.65;;;;;;;15.11;100.00;98841.55;1724017;82;21036;-68
2022/09/15 08:01:13;;;;;;;23.27;18.20;;;;;;;15.11;100.00;98841.55;1724508;83;21116;-68
2022/09/15 08:03:47;;;;;;;23.87;16.30;;;;;;;15.12;100.00;98836.63;1724224;82;21485;-68
2022/09/15 08:06:14;;;;;;;26.07;16.77;;;;;;;15.16;100.00;98839.87;1724695;83;21059;-68
2022/09/15 08:08:42;;;;;;;28.17;17.82;;;;;;;15.18;100.00;98828.66;1724211;83;21083;-67
2022/09/15 08:11:13;;;;;;;22.30;18.62;;;;;;;15.21;100.00;98833.27;1724674;83;21055;-66
2022/09/15 08:13:40;;;;;;;23.98;15.75;;;;;;;15.26;100.00;98830.26;1724497;82;21291;-67
2022/09/15 08:16:15;;;;;;;25.68;17.82;;;;;;;15.30;100.00;98821.95;1724470;83;21083;-67
2022/09/15 08:18:42;;;;;;;22.35;16.87;;;;;;;15.38;100.00;98832.44;1724099;83;21564;-67
2022/09/15 08:21:14;;;;;;;20.37;15.08;;;;;;;15.40;100.00;98834.50;1724549;82;21096;-67
2022/09/15 08:23:40;;;;;;;22.93;16.67;;;;;;;15.44;100.00;98825.34;1723747;83;21079;-68
2022/09/15 08:26:08;;;;;;;20.25;14.65;;;;;;;15.45;100.00;98823.04;1695228;84;21140;-68
2022/09/15 08:28:36;;;;;;;21.35;16.82;;;;;;;15.48;100.00;98822.79;1695284;84;21054;-68
2022/09/15 08:31:05;;;;;;;25.90;19.25;;;;;;;15.51;100.00;98823.90;1694957;84;21136;-67
2022/09/15 08:33:32;;;;;;;22.60;18.87;;;;;;;15.58;100.00;98829.58;1683001;85;21086;-68
2022/09/15 08:36:05;;;;;;;25.97;19.92;;;;;;;15.61;100.00;98819.55;1682821;85;21586;-67
2022/09/15 08:38:32;;;;;;;29.65;20.52;;;;;;;15.63;100.00;98818.94;1682462;84;21159;-66
2022/09/15 08:41:05;;;;;;;31.25;20.37;;;;;;;15.69;100.00;98818.47;1682615;85;21069;-68
2022/09/15 08:43:41;;;;;;;27.20;20.10;;;;;;;15.76;100.00;98816.67;1683217;85;21083;-67
2022/09/15 08:46:11;;;;;;;24.27;18.92;;;;;;;15.78;100.00;98821.38;1682155;84;21094;-69
2022/09/15 08:48:41;;;;;;;;;;;;;;;15.81;100.00;98819.83;1685647;85;21045;-68
2022/09/15 08:51:13;;;;;;;25.37;19.52;;;;;;;15.82;100.00;98821.02;1682505;84;21111;-68
2022/09/15 08:53:46;;;;;;;28.57;19.45;;;;;;;15.84;100.00;98827.05;1682671;84;21123;-68
2022/09/15 08:56:16;;;;;;;25.62;18.75;;;;;;;15.89;100.00;98823.53;1710607;83;21793;-67
2022/09/15 08:58:44;;;;;;;24.00;17.87;;;;;;;15.96;100.00;98823.89;1711585;83;21112;-68
2022/09/15 09:01:28;;;;;;;21.33;16.67;;;;;;;15.99;100.00;98818.36;1711339;83;21078;-69
2022/09/15 09:04:03;;;;;;;23.57;17.62;;;;;;;16.03;100.00;98814.47;1711462;83;21109;-66
2022/09/15 09:06:44;;;;;;;25.85;19.73;;;;;;;16.09;100.00;98816.64;1711234;82;21041;-67
2022/09/15 09:09:42;;;;;;;26.57;19.62;;;;;;;16.12;100.00;98819.52;1711585;82;21095;-66
2022/09/15 09:12:39;;;;;;;30.17;18.57;;;;;;;16.14;100.00;98815.77;1711293;82;21549;-67
2022/09/15 09:15:18;;;;;;;25.40;17.12;;;;;;;16.13;100.00;98806.13;1711516;83;21103;-66
2022/09/15 09:18:02;;;;;;;20.60;15.35;;;;;;;16.16;100.00;98810.34;1710775;83;21556;-68
2022/09/15 09:21:10;;;;;;;19.77;16.45;;;;;;;16.21;100.00;98809.97;1711321;83;21572;-67
2022/09/15 09:23:51;;;;;;;20.57;15.48;;;;;;;16.29;100.00;98809.72;1711037;82;21056;-68
2022/09/15 09:26:17;;;;;;;23.27;18.15;;;;;;;16.29;100.00;98800.91;1711558;83;21620;-67
2022/09/15 09:28:49;;;;;;;20.90;16.02;;;;;;;16.34;100.00;98805.35;1711511;82;21619;-66
2022/09/15 09:31:20;;;;;;;20.68;15.05;;;;;;;16.38;100.00;98802.81;1710759;83;21087;-67
2022/09/15 09:34:01;;;;;;;22.40;16.00;;;;;;;16.45;100.00;98805.32;1711265;83;21302;-67
2022/09/15 09:36:28;;;;;;;20.95;15.03;;;;;;;16.52;100.00;98798.52;1711771;83;21539;-68
2022/09/15 09:38:54;;;;;;;17.80;14.05;;;;;;;16.56;100.00;98799.09;1711258;82;21695;-67
2022/09/15 09:41:26;;;;;;;20.55;14.68;;;;;;;16.57;100.00;98797.66;1711860;83;21674;-66
2022/09/15 09:43:53;;;;;;;24.07;17.52;;;;;;;16.63;100.00;98808.73;1711475;83;21818;-68
2022/09/15 09:46:20;;;;;;;22.55;16.50;;;;;;;16.69;100.00;98803.75;1711474;82;21029;-67
2022/09/15 09:48:55;;;;;;;21.35;17.02;;;;;;;16.76;100.00;98801.44;1711355;83;21068;-67
2022/09/15 09:51:36;;;;;;;20.17;15.48;;;;;;;16.82;100.00;98798.30;1702259;83;21096;-67
2022/09/15 09:54:05;;;;;;;20.20;14.25;;;;;;;16.90;100.00;98794.98;1711729;83;21111;-67
2022/09/15 09:56:32;;;;;;;18.07;13.48;;;;;;;16.98;100.00;98805.34;1711388;83;21850;-68
2022/09/15 09:59:03;;;;;;;18.23;13.80;;;;;;;17.06;100.00;98808.67;1711530;82;21019;-69
2022/09/15 10:01:27;;;;;;;21.93;13.72;;;;;;;17.14;100.00;98804.05;1710359;83;21086;-69
2022/09/15 10:04:13;;;;;;;21.52;13.03;;;;;;;17.26;100.00;98809.64;1711511;83;21065;-68
2022/09/15 10:06:41;;;;;;;14.60;10.60;;;;;;;17.36;100.00;98809.19;1711296;83;21046;-70
2022/09/15 10:09:17;;;;;;;15.08;11.40;;;;;;;17.48;100.00;98817.09;1711164;83;22240;-68
2022/09/15 10:11:58;;;;;;;16.42;10.88;;;;;;;17.50;100.00;98809.83;1711077;83;21685;-67
2022/09/15 10:14:37;;;;;;;14.95;10.38;;;;;;;17.51;100.00;98818.18;1711771;83;21665;-68
2022/09/15 10:17:19;;;;;;;15.65;11.15;;;;;;;17.50;100.00;98823.12;1711477;82;21513;-68
2022/09/15 10:19:53;;;;;;;;;;;;;;;17.49;100.00;98818.80;1713964;83;21050;-68
2022/09/15 10:22:33;;;;;;;17.57;12.13;;;;;;;17.58;100.00;98818.83;1711499;83;21133;-68
2022/09/15 10:25:02;;;;;;;12.55;10.40;;;;;;;17.63;100.00;98810.95;1711333;83;22297;-69
2022/09/15 10:27:33;;;;;;;13.50;10.28;;;;;;;17.56;100.00;98815.95;1711397;82;21046;-68
2022/09/15 10:30:17;;;;;;;15.23;11.15;;;;;;;17.47;100.00;98810.09;1711509;82;21054;-67
2022/09/15 10:32:44;;;;;;;15.85;10.90;;;;;;;17.38;100.00;98812.56;1717183;83;21068;-68
2022/09/15 10:35:14;;;;;;;16.95;11.57;;;;;;;17.30;100.00;98803.09;1724149;83;21275;-67
2022/09/15 10:37:52;;;;;;;16.13;11.77;;;;;;;17.29;100.00;98808.53;1724578;83;21029;-68
2022/09/15 10:40:53;;;;;;;15.50;11.25;;;;;;;17.36;100.00;98815.84;1723274;82;21060;-67
2022/09/15 10:44:04;;;;;;;16.42;11.80;;;;;;;17.43;100.00;98816.66;1709186;83;21609;-68
2022/09/15 10:47:13;;;;;;;13.95;10.88;;;;;;;17.52;100.00;98821.18;1724133;83;21062;-68
2022/09/15 10:49:48;;;;;;;14.20;10.85;;;;;;;17.68;100.00;98800.73;1695098;83;21131;-68
2022/09/15 10:52:54;;;;;;;13.55;10.35;;;;;;;17.91;100.00;98789.41;1694786;84;21026;-67
2022/09/15 10:55:39;;;;;;;16.37;11.05;;;;;;;18.20;100.00;98783.66;1713170;83;21091;-67
2022/09/15 10:58:43;;;;;;;14.00;11.85;;;;;;;18.47;100.00;98786.62;1724319;83;21126;-68
2022/09/15 11:01:24;;;;;;;14.13;10.90;;;;;;;18.52;100.00;98792.36;1724412;83;21527;-69
2022/09/15 11:04:15;;;;;;;;;;;;;;;18.55;100.00;98783.61;1703290;82;21082;-68
2022/09/15 11:06:49;;;;;;;12.45;9.45;;;;;;;18.56;100.00;98785.28;1724054;82;20162;-69
2022/09/15 11:09:27;;;;;;;11.70;9.30;;;;;;;18.48;100.00;98782.48;1724427;83;21043;-68
2022/09/15 11:12:02;;;;;;;10.55;8.70;;;;;;;18.50;100.00;98789.86;1724163;83;21076;-68
2022/09/15 11:14:54;;;;;;;17.10;10.40;;;;;;;18.46;100.00;98788.45;1724597;82;21046;-69
2022/09/15 11:17:27;;;;;;;;;;;;;;;18.35;100.00;98793.91;1727332;82;21751;-69
2022/09/15 11:20:29;;;;;;;15.15;9.53;;;;;;;18.29;100.00;98789.13;1724342;83;20199;-68
2022/09/15 11:23:22;;;;;;;11.50;9.03;;;;;;;18.29;100.00;98779.80;1724242;82;21055;-67
2022/09/15 11:25:53;;;;;;;12.88;9.00;;;;;;;18.36;100.00;98776.95;1724134;82;21039;-68
2022/09/15 11:28:33;;;;;;;10.85;8.23;;;;;;;18.40;100.00;98776.53;1724374;82;21578;-68
2022/09/15 11:31:12;;;;;;;14.07;8.85;;;;;;;18.45;100.00;98776.11;1724283;83;21274;-68
2022/09/15 11:33:53;;;;;;;13.25;9.20;;;;;;;18.55;100.00;98766.28;1715201;82;21548;-68
2022/09/15 11:36:43;;;;;;;17.10;10.05;;;;;;;18.65;100.00;98764.44;1717936;82;21123;-70